North Dighton, MA

41° 51' 30"N, 71° 08' 44"W, Elevation 95 ft.
Eastern Time

Hourly observations for the last 72 hours

Date Time Temperature (°F) Humi-
dity

(%)
Wind
(mph)
Pressure Rain (in) Sun
(W/m2)
UV ET
(in)
Air Dew 6 Hour 1 Hr 3 Hr 6 Hr Day
Alt
(in)
Sea
Level

(mb)
Max Min
20 21:00 57.8 55.2 91 Calm 30.11 1019.6 0.00 0 0.0 0.141
20 20:00 60.5 56.9 78.3 60.5 88 NW 0 G 1 30.09 1019.2 0.00 0 0.0 0.141
20 19:00 65.6 60.3 83 Calm 30.09 1019.0 0.00 0 0.0 0.140
20 18:00 69.8 61.1 74 NW 0 G 1 30.08 1018.7 0.00 93 0.0 0.135
20 17:00 76.8 53.3 44 NW 2 G 5 30.08 1018.5 0.00 279 0.7 0.124
20 16:00 78.1 52.5 41 NNW 3 G 7 30.08 1018.6 0.00 469 1.7 0.108
20 15:00 77.4 56.8 49 NNE 2 G 7 30.08 1018.8 0.00 619 3.1 0.089
20 14:00 76.2 56.8 76.4 43.3 51 NNW 9 G 11 30.10 1019.5 0.00 722 4.3 0.069
20 13:00 73.9 55.2 52 WNW 3 G 5 30.12 1020.1 0.00 773 5.0 0.049
20 12:00 71.7 54.7 55 WNW 2 G 9 30.15 1020.9 0.00 763 4.9 0.031
20 11:00 68.2 56.4 66 WSW 2 G 8 30.16 1021.5 0.00 694 4.0 0.016
20 10:00 62.3 54.6 76 WNW 1 G 4 30.19 1022.4 0.00 571 2.6 0.006
20 09:00 55.5 52.0 88 WSW 1 G 4 30.20 1022.8 0.00 346 1.3 0.001
20 08:00 43.3 42.5 43.3 36.6 97 SSW 0 G 1 30.20 1022.7 0.00 188 0.0 0.000
20 07:00 36.6 35.6 96 Calm 30.20 1022.6 0.00 14 0.0 0.000
20 06:00 37.6 36.6 96 Calm 30.19 1022.4 0.00 0 0.0 0.000
20 05:00 37.5 36.5 96 N 0 G 1 30.18 1022.2 0.00 0 0.0 0.000
20 04:00 38.0 36.7 95 N 1 G 2 30.18 1022.2 0.00 0 0.0 0.000
20 03:00 39.2 38.2 96 N 0 G 1 30.19 1022.5 0.00 0 0.0 0.000
20 02:00 40.0 38.7 49.5 40.0 95 Calm 30.20 1022.9 0.00 0 0.0 0.000
20 01:00 40.6 39.5 96 Calm 30.23 1023.7 0.00 0 0.0 0.000
20 00:00 41.8 40.5 95 Calm 30.23 1023.7 0.01 0 0.0 0.133
19 23:00 42.9 41.6 95 N 1 G 2 30.24 1024.1 0.01 0 0.0 0.133
19 22:00 44.8 43.2 94 N 0 G 1 30.25 1024.3 0.01 0 0.0 0.133
19 21:00 46.8 45.2 94 Calm 30.25 1024.4 0.01 0 0.0 0.133
19 20:00 49.5 47.6 67.4 49.5 93 Calm 30.26 1024.9 0.01 0 0.0 0.133
19 19:00 53.8 50.6 89 NE 0 G 1 30.26 1024.8 0.01 0 0.0 0.132
19 18:00 62.0 52.1 70 NE 0 G 2 30.26 1024.8 0.01 109 0.0 0.127
19 17:00 66.6 46.3 48 NNW 0 G 7 30.26 1024.8 0.01 299 0.6 0.117
19 16:00 67.0 50.8 56 N 4 G 8 30.26 1024.7 0.01 489 1.7 0.103
19 15:00 66.7 49.0 53 E 2 G 9 30.27 1025.2 0.01 633 2.9 0.086
19 14:00 65.6 49.5 66.4 46.5 56 E 2 G 11 30.29 1025.7 0.01 0.01 738 4.1 0.068
19 13:00 64.6 50.9 61 N 2 G 9 30.30 1026.2 0.01 788 4.8 0.050
19 12:00 63.0 49.8 62 NNW 4 G 11 30.32 1026.8 0.01 772 4.5 0.033
19 11:00 61.2 50.6 68 E 4 G 12 30.33 1027.1 0.01 0.01 708 3.7 0.018
19 10:00 58.7 49.7 72 N 6 G 12 30.33 1027.3 0.01 582 2.5 0.007
19 09:00 52.9 47.6 82 NNW 4 G 12 30.34 1027.4 0.01 0.01 357 1.2 0.002
19 08:00 46.5 44.9 46.5 38.8 94 NNW 3 G 7 30.33 1027.0 0.00 190 0.0 0.000
19 07:00 40.9 39.6 95 NNW 3 G 4 30.32 1026.7 0.00 21 0.0 0.000
19 06:00 41.0 39.7 95 NW 3 G 4 30.30 1026.1 0.00 0 0.0 0.000
19 05:00 41.9 40.8 96 NNW 4 G 8 30.29 1025.8 0.00 0 0.0 0.000
19 04:00 39.7 38.4 95 Calm 30.30 1026.0 0.00 0 0.0 0.000
19 03:00 39.5 38.2 95 WNW 1 G 3 30.29 1025.8 0.00 0 0.0 0.000
19 02:00 40.5 38.9 47.5 40.5 94 NNW 1 G 2 30.30 1026.2 0.02 0.02 0.00 0 0.0 0.000
19 01:00 41.5 39.9 94 NW 1 G 2 30.31 1026.3 0.00 0 0.0 0.000
19 00:00 43.6 41.7 93 NNW 2 G 4 30.31 1026.3 0.02 0.02 0 0.0 0.101
18 23:00 42.2 40.6 94 NNW 1 G 3 30.32 1026.8 0.00 0 0.0 0.101
18 22:00 42.3 40.4 93 NW 3 G 4 30.32 1026.8 0.00 0 0.0 0.101
18 21:00 44.2 42.0 92 Calm 30.31 1026.4 0.00 0 0.0 0.101
18 20:00 47.5 43.8 61.5 47.5 87 N 1 G 2 30.29 1025.8 0.00 0 0.0 0.101
18 19:00 52.9 44.8 74 N 3 G 7 30.29 1025.8 0.00 0 0.0 0.099
18 18:00 56.8 47.1 70 N 2 G 11 30.28 1025.5 0.00 120 0.0 0.095
18 17:00 56.7 46.3 68 N 5 G 10 30.27 1025.2 0.00 60 0.5 0.089
18 16:00 59.3 46.3 62 NNE 5 G 15 30.26 1024.9 0.00 93 1.1 0.077
18 15:00 60.3 47.7 63 NE 7 G 15 30.26 1024.7 0.00 181 2.0 0.065
18 14:00 59.2 49.0 62.4 54.0 69 NNE 8 G 20 30.26 1024.8 0.00 631 2.9 0.054
18 13:00 60.0 47.4 63 NNE 8 G 18 30.25 1024.5 0.00 290 2.4 0.041
18 12:00 60.2 50.0 69 N 10 G 18 30.25 1024.3 0.00 258 4.6 0.028
18 11:00 61.6 48.5 62 NE 9 G 17 30.24 1024.1 0.00 891 4.0 0.016
18 10:00 57.3 49.8 76 NNW 8 G 15 30.25 1024.5 0.00 176 1.1 0.009
18 09:00 57.4 51.3 80 N 8 G 14 30.25 1024.2 0.00 146 1.3 0.004
18 08:00 54.0 49.0 56.0 52.4 83 NNW 6 G 8 30.23 1023.7 0.00 135 0.0 0.002
18 07:00 53.3 48.9 85 NNW 2 G 5 30.21 1023.2 0.00 21 0.0 0.001
18 06:00 55.1 51.0 86 N 4 G 7 30.19 1022.5 0.00 0 0.0 0.000
18 05:00 54.4 51.8 91 NNW 2 G 5 30.18 1021.9 0.00 0 0.0 0.000
18 04:00 55.1 53.4 94 N 2 G 4 30.17 1021.6 0.00 0 0.0 0.000
18 03:00 55.6 54.2 95 N 1 G 3 30.17 1021.7 0.00 0 0.0 0.000
18 02:00 55.0 53.9 55.0 52.3 96 NW 3 G 6 30.17 1021.6 0.00 0 0.0 0.000
18 01:00 54.3 53.2 96 NW 1 G 2 30.17 1021.6 0.00 0 0.0 0.000
18 00:00 52.9 51.8 96 NNE 0 G 2 30.16 1021.4 0.01 0 0.0 0.129
17 23:00 54.3 52.9 95 NNE 0 G 1 30.17 1021.5 0.01 0 0.0 0.129
17 22:00 53.6 52.2 95 NNE 0 G 1 30.16 1021.3 0.01 0 0.0 0.129

Data generated by WxSolution Version 1.9.1.7, Build 2018.11.24.